sensor_id;sensor_type;location;lat;lon;timestamp;pressure;altitude;pressure_sealevel;temperature;humidity
61113;BME280;47184;57.998;56.184;2023-07-20T00:02:01;97992.75;;;18.73;73.30
61113;BME280;47184;57.998;56.184;2023-07-20T00:04:28;98013.88;;;18.79;73.30
61113;BME280;47184;57.998;56.184;2023-07-20T00:06:54;98012.81;;;18.80;73.33
61113;BME280;47184;57.998;56.184;2023-07-20T00:09:20;98001.00;;;18.66;73.57
61113;BME280;47184;57.998;56.184;2023-07-20T00:11:51;97975.78;;;18.47;73.45
61113;BME280;47184;57.998;56.184;2023-07-20T00:14:17;98023.97;;;18.67;73.72
61113;BME280;47184;57.998;56.184;2023-07-20T00:16:45;98026.38;;;18.64;73.75
61113;BME280;47184;57.998;56.184;2023-07-20T00:19:12;98010.25;;;18.43;74.04
61113;BME280;47184;57.998;56.184;2023-07-20T00:21:39;98022.53;;;18.44;74.38
61113;BME280;47184;57.998;56.184;2023-07-20T00:24:06;98038.34;;;18.51;74.52
61113;BME280;47184;57.998;56.184;2023-07-20T00:26:32;98013.41;;;18.35;74.15
61113;BME280;47184;57.998;56.184;2023-07-20T00:28:58;98035.91;;;18.44;74.45
61113;BME280;47184;57.998;56.184;2023-07-20T00:31:24;98034.84;;;18.45;74.37
61113;BME280;47184;57.998;56.184;2023-07-20T00:33:50;98020.66;;;18.45;74.36
61113;BME280;47184;57.998;56.184;2023-07-20T00:36:16;98034.59;;;18.52;74.31
61113;BME280;47184;57.998;56.184;2023-07-20T00:38:42;98039.94;;;18.52;74.28
61113;BME280;47184;57.998;56.184;2023-07-20T00:41:08;98033.28;;;18.49;74.75
61113;BME280;47184;57.998;56.184;2023-07-20T00:43:34;98039.94;;;18.47;74.77
61113;BME280;47184;57.998;56.184;2023-07-20T00:46:00;98037.75;;;18.44;75.10
61113;BME280;47184;57.998;56.184;2023-07-20T00:48:29;98038.03;;;18.42;75.48
61113;BME280;47184;57.998;56.184;2023-07-20T00:50:56;98018.19;;;18.28;75.63
61113;BME280;47184;57.998;56.184;2023-07-20T00:53:23;98030.81;;;18.43;75.94
61113;BME280;47184;57.998;56.184;2023-07-20T00:55:49;98033.28;;;18.49;75.76
61113;BME280;47184;57.998;56.184;2023-07-20T00:58:15;98035.38;;;18.47;76.30
61113;BME280;47184;57.998;56.184;2023-07-20T01:00:41;98014.22;;;18.41;75.80
61113;BME280;47184;57.998;56.184;2023-07-20T01:03:07;98044.56;;;18.62;75.71
61113;BME280;47184;57.998;56.184;2023-07-20T01:05:40;97996.06;;;18.43;75.31
61113;BME280;47184;57.998;56.184;2023-07-20T01:08:08;98034.50;;;18.89;75.08
61113;BME280;47184;57.998;56.184;2023-07-20T01:10:44;98035.34;;;19.05;74.33
61113;BME280;47184;57.998;56.184;2023-07-20T01:13:14;98042.88;;;19.18;74.22
61113;BME280;47184;57.998;56.184;2023-07-20T01:15:40;98046.94;;;19.36;73.76
61113;BME280;47184;57.998;56.184;2023-07-20T01:18:06;98043.44;;;19.51;73.52
61113;BME280;47184;57.998;56.184;2023-07-20T01:20:33;97999.84;;;19.40;72.88
61113;BME280;47184;57.998;56.184;2023-07-20T01:29:11;98053.31;;;20.42;71.07
61113;BME280;47184;57.998;56.184;2023-07-20T01:31:43;98031.06;;;20.42;70.45
61113;BME280;47184;57.998;56.184;2023-07-20T01:34:12;98055.16;;;20.67;70.24
61113;BME280;47184;57.998;56.184;2023-07-20T01:36:40;98063.69;;;20.80;69.77
61113;BME280;47184;57.998;56.184;2023-07-20T01:39:08;98064.53;;;20.65;69.56
61113;BME280;47184;57.998;56.184;2023-07-20T01:41:34;98064.31;;;20.51;69.83
61113;BME280;47184;57.998;56.184;2023-07-20T01:44:00;98069.44;;;20.37;69.99
61113;BME280;47184;57.998;56.184;2023-07-20T01:46:27;98028.75;;;20.10;69.96
61113;BME280;47184;57.998;56.184;2023-07-20T01:48:54;98040.53;;;20.09;70.01
61113;BME280;47184;57.998;56.184;2023-07-20T01:51:20;98081.50;;;20.29;70.12
61113;BME280;47184;57.998;56.184;2023-07-20T01:53:48;98079.91;;;20.18;69.92
61113;BME280;47184;57.998;56.184;2023-07-20T01:56:14;98078.84;;;20.14;70.07
61113;BME280;47184;57.998;56.184;2023-07-20T01:58:40;98090.34;;;20.15;70.13
61113;BME280;47184;57.998;56.184;2023-07-20T02:01:06;98070.28;;;19.92;70.21
61113;BME280;47184;57.998;56.184;2023-07-20T02:03:32;98074.03;;;20.01;70.09
61113;BME280;47184;57.998;56.184;2023-07-20T02:05:58;98107.53;;;20.14;70.00
61113;BME280;47184;57.998;56.184;2023-07-20T02:08:25;98097.88;;;20.18;69.95
61113;BME280;47184;57.998;56.184;2023-07-20T02:10:51;98106.69;;;20.23;70.10
61113;BME280;47184;57.998;56.184;2023-07-20T02:13:17;98107.50;;;20.24;69.85
61113;BME280;47184;57.998;56.184;2023-07-20T02:15:44;98108.28;;;20.24;69.70
61113;BME280;47184;57.998;56.184;2023-07-20T02:18:10;98070.28;;;19.97;69.89
61113;BME280;47184;57.998;56.184;2023-07-20T02:20:36;98111.53;;;20.11;69.98
61113;BME280;47184;57.998;56.184;2023-07-20T02:23:02;98100.28;;;19.89;70.52
61113;BME280;47184;57.998;56.184;2023-07-20T02:25:28;98118.22;;;20.03;70.48
61113;BME280;47184;57.998;56.184;2023-07-20T02:27:56;98098.41;;;20.04;70.36
61113;BME280;47184;57.998;56.184;2023-07-20T02:30:22;98115.81;;;20.17;70.25
61113;BME280;47184;57.998;56.184;2023-07-20T02:32:48;98106.19;;;20.21;70.19
61113;BME280;47184;57.998;56.184;2023-07-20T02:35:15;98103.47;;;20.32;69.80
61113;BME280;47184;57.998;56.184;2023-07-20T02:37:42;98079.88;;;20.34;69.41
61113;BME280;47184;57.998;56.184;2023-07-20T02:40:08;98117.63;;;20.68;69.07
61113;BME280;47184;57.998;56.184;2023-07-20T02:42:37;98118.72;;;20.67;69.04
61113;BME280;47184;57.998;56.184;2023-07-20T02:45:04;98124.38;;;20.55;69.31
61113;BME280;47184;57.998;56.184;2023-07-20T02:47:32;98127.31;;;20.43;69.55
61113;BME280;47184;57.998;56.184;2023-07-20T02:49:59;98125.97;;;20.36;69.84
61113;BME280;47184;57.998;56.184;2023-07-20T02:52:25;98095.44;;;20.11;70.14
61113;BME280;47184;57.998;56.184;2023-07-20T02:54:51;98111.78;;;20.20;70.04
61113;BME280;47184;57.998;56.184;2023-07-20T02:57:17;98134.84;;;20.31;70.26
61113;BME280;47184;57.998;56.184;2023-07-20T02:59:43;98135.66;;;20.26;70.36
61113;BME280;47184;57.998;56.184;2023-07-20T03:02:12;98115.28;;;20.31;70.06
61113;BME280;47184;57.998;56.184;2023-07-20T03:04:38;98133.22;;;20.40;70.29
61113;BME280;47184;57.998;56.184;2023-07-20T03:07:05;98109.91;;;20.20;70.25
61113;BME280;47184;57.998;56.184;2023-07-20T03:09:31;98137.50;;;20.31;70.47
61113;BME280;47184;57.998;56.184;2023-07-20T03:11:57;98097.88;;;19.97;70.74
61113;BME280;47184;57.998;56.184;2023-07-20T03:14:23;98121.47;;;20.00;71.11
61113;BME280;47184;57.998;56.184;2023-07-20T03:16:49;98128.16;;;20.18;71.03
61113;BME280;47184;57.998;56.184;2023-07-20T03:19:16;98134.84;;;20.31;70.71
61113;BME280;47184;57.998;56.184;2023-07-20T03:21:42;98099.22;;;20.10;70.65
61113;BME280;47184;57.998;56.184;2023-07-20T03:24:08;98121.97;;;20.33;70.42
61113;BME280;47184;57.998;56.184;2023-07-20T03:26:35;98113.13;;;20.27;70.56
61113;BME280;47184;57.998;56.184;2023-07-20T03:29:03;98146.63;;;20.56;70.36
61113;BME280;47184;57.998;56.184;2023-07-20T03:31:29;98139.91;;;20.53;70.26
61113;BME280;47184;57.998;56.184;2023-07-20T03:33:55;98132.94;;;20.57;70.14
61113;BME280;47184;57.998;56.184;2023-07-20T03:36:22;98092.47;;;20.53;69.75
61113;BME280;47184;57.998;56.184;2023-07-20T03:38:49;98136.00;;;21.05;69.17
61113;BME280;47184;57.998;56.184;2023-07-20T03:41:15;98145.84;;;21.30;68.92
61113;BME280;47184;57.998;56.184;2023-07-20T03:43:42;98115.50;;;21.30;68.46
61113;BME280;47184;57.998;56.184;2023-07-20T03:46:08;98146.75;;;21.65;68.20
61113;BME280;47184;57.998;56.184;2023-07-20T03:48:34;98107.31;;;21.55;67.18
61113;BME280;47184;57.998;56.184;2023-07-20T03:51:00;98145.38;;;21.72;67.12
61113;BME280;47184;57.998;56.184;2023-07-20T03:53:26;98154.31;;;21.58;67.48
61113;BME280;47184;57.998;56.184;2023-07-20T03:55:53;98112.50;;;20.87;68.49
61113;BME280;47184;57.998;56.184;2023-07-20T03:58:19;98153.63;;;21.26;68.36
61113;BME280;47184;57.998;56.184;2023-07-20T04:00:50;98153.88;;;21.40;68.34
61113;BME280;47184;57.998;56.184;2023-07-20T04:03:18;98116.63;;;21.23;67.85
61113;BME280;47184;57.998;56.184;2023-07-20T04:05:46;98149.75;;;21.58;67.38
61113;BME280;47184;57.998;56.184;2023-07-20T04:08:13;98156.97;;;21.63;67.48
61113;BME280;47184;57.998;56.184;2023-07-20T04:10:39;98150.56;;;21.59;67.66
61113;BME280;47184;57.998;56.184;2023-07-20T04:13:05;98155.28;;;21.77;67.05
61113;BME280;47184;57.998;56.184;2023-07-20T04:15:32;98095.28;;;21.52;66.96
61113;BME280;47184;57.998;56.184;2023-07-20T04:17:58;98153.09;;;21.79;66.88
61113;BME280;47184;57.998;56.184;2023-07-20T04:20:24;98154.44;;;21.82;66.75
61113;BME280;47184;57.998;56.184;2023-07-20T04:22:50;98134.06;;;21.75;66.21
61113;BME280;47184;57.998;56.184;2023-07-20T04:25:18;98105.59;;;21.74;65.69
61113;BME280;47184;57.998;56.184;2023-07-20T04:27:45;98157.94;;;22.21;65.20
61113;BME280;47184;57.998;56.184;2023-07-20T04:30:12;98123.41;;;22.34;64.29
61113;BME280;47184;57.998;56.184;2023-07-20T04:32:39;98156.78;;;22.91;63.46
61113;BME280;47184;57.998;56.184;2023-07-20T04:35:18;98162.31;;;22.99;62.85
61113;BME280;47184;57.998;56.184;2023-07-20T04:37:45;98148.72;;;22.57;63.01
61113;BME280;47184;57.998;56.184;2023-07-20T04:40:15;98152.91;;;22.44;63.08
61113;BME280;47184;57.998;56.184;2023-07-20T04:42:42;98156.00;;;22.56;62.72
61113;BME280;47184;57.998;56.184;2023-07-20T04:45:08;98153.56;;;22.84;62.20
61113;BME280;47184;57.998;56.184;2023-07-20T04:47:36;98156.19;;;22.89;62.09
61113;BME280;47184;57.998;56.184;2023-07-20T04:50:02;98143.66;;;22.55;62.40
61113;BME280;47184;57.998;56.184;2023-07-20T04:52:29;98128.97;;;22.13;62.71
61113;BME280;47184;57.998;56.184;2023-07-20T04:54:57;98160.72;;;22.40;62.04
61113;BME280;47184;57.998;56.184;2023-07-20T04:57:23;98173.38;;;22.40;62.36
61113;BME280;47184;57.998;56.184;2023-07-20T04:59:49;98162.34;;;22.70;61.42
61113;BME280;47184;57.998;56.184;2023-07-20T05:02:15;98162.56;;;23.03;60.93
61113;BME280;47184;57.998;56.184;2023-07-20T05:04:41;98165.88;;;23.19;60.36
61113;BME280;47184;57.998;56.184;2023-07-20T05:07:08;98162.88;;;22.96;60.43
61113;BME280;47184;57.998;56.184;2023-07-20T05:09:35;98173.16;;;22.94;61.07
61113;BME280;47184;57.998;56.184;2023-07-20T05:12:01;98177.03;;;23.07;60.89
61113;BME280;47184;57.998;56.184;2023-07-20T05:14:28;98169.06;;;22.97;60.38
61113;BME280;47184;57.998;56.184;2023-07-20T05:16:56;98159.66;;;22.70;60.98
61113;BME280;47184;57.998;56.184;2023-07-20T05:19:24;98141.66;;;22.66;60.71
61113;BME280;47184;57.998;56.184;2023-07-20T05:21:50;98174.19;;;22.98;59.88
61113;BME280;47184;57.998;56.184;2023-07-20T05:24:16;98158.13;;;22.59;59.51
61113;BME280;47184;57.998;56.184;2023-07-20T05:26:42;98174.75;;;22.95;59.13
61113;BME280;47184;57.998;56.184;2023-07-20T05:29:08;98169.78;;;22.79;59.33
61113;BME280;47184;57.998;56.184;2023-07-20T05:31:34;98181.00;;;22.57;60.51
61113;BME280;47184;57.998;56.184;2023-07-20T05:34:00;98159.44;;;22.33;61.18
61113;BME280;47184;57.998;56.184;2023-07-20T05:36:26;98159.88;;;22.45;60.73
61113;BME280;47184;57.998;56.184;2023-07-20T05:38:52;98132.53;;;22.38;60.73
61113;BME280;47184;57.998;56.184;2023-07-20T05:41:18;98173.16;;;22.89;60.15
61113;BME280;47184;57.998;56.184;2023-07-20T05:43:44;98097.56;;;22.86;59.16
61113;BME280;47184;57.998;56.184;2023-07-20T05:46:10;98159.59;;;23.66;58.28
61113;BME280;47184;57.998;56.184;2023-07-20T05:48:36;98117.25;;;24.05;56.96
61113;BME280;47184;57.998;56.184;2023-07-20T05:51:02;98181.47;;;24.35;56.29
61113;BME280;47184;57.998;56.184;2023-07-20T05:53:28;98148.75;;;23.90;55.96
61113;BME280;47184;57.998;56.184;2023-07-20T05:55:54;98177.22;;;23.78;56.22
61113;BME280;47184;57.998;56.184;2023-07-20T05:58:21;98143.06;;;23.73;56.45
61113;BME280;47184;57.998;56.184;2023-07-20T06:00:48;98158.31;;;24.15;55.84
61113;BME280;47184;57.998;56.184;2023-07-20T06:03:15;98146.25;;;24.45;53.94
61113;BME280;47184;57.998;56.184;2023-07-20T06:05:42;98174.19;;;24.96;53.34
61113;BME280;47184;57.998;56.184;2023-07-20T06:08:09;98131.19;;;25.00;52.21
61113;BME280;47184;57.998;56.184;2023-07-20T06:10:35;98161.72;;;24.86;52.36
61113;BME280;47184;57.998;56.184;2023-07-20T06:13:01;98171.41;;;25.29;52.26
61113;BME280;47184;57.998;56.184;2023-07-20T06:15:36;98147.00;;;25.70;50.61
61113;BME280;47184;57.998;56.184;2023-07-20T06:18:02;98181.06;;;26.52;49.74
61113;BME280;47184;57.998;56.184;2023-07-20T06:20:29;98179.56;;;27.57;46.71
61113;BME280;47184;57.998;56.184;2023-07-20T06:22:56;98165.28;;;28.73;43.99
61113;BME280;47184;57.998;56.184;2023-07-20T06:25:22;98172.06;;;28.96;42.82
61113;BME280;47184;57.998;56.184;2023-07-20T06:27:49;98133.63;;;28.77;42.59
61113;BME280;47184;57.998;56.184;2023-07-20T06:30:19;98172.22;;;30.43;40.53
61113;BME280;47184;57.998;56.184;2023-07-20T06:32:45;98172.25;;;29.80;39.65
61113;BME280;47184;57.998;56.184;2023-07-20T06:35:12;98171.63;;;28.30;41.92
61113;BME280;47184;57.998;56.184;2023-07-20T06:37:38;98159.38;;;26.75;44.31
61113;BME280;47184;57.998;56.184;2023-07-20T06:40:04;98130.81;;;26.15;45.73
61113;BME280;47184;57.998;56.184;2023-07-20T06:42:31;98159.78;;;25.92;46.61
61113;BME280;47184;57.998;56.184;2023-07-20T06:44:57;98162.75;;;26.89;45.51
61113;BME280;47184;57.998;56.184;2023-07-20T06:47:23;98128.31;;;25.96;46.35
61113;BME280;47184;57.998;56.184;2023-07-20T06:49:49;98194.91;;;24.21;58.70
61113;BME280;47184;57.998;56.184;2023-07-20T06:52:18;98177.31;;;21.14;67.50
61113;BME280;47184;57.998;56.184;2023-07-20T06:54:46;98189.25;;;20.11;71.43
61113;BME280;47184;57.998;56.184;2023-07-20T06:57:13;98177.66;;;19.65;73.32
61113;BME280;47184;57.998;56.184;2023-07-20T06:59:38;98147.78;;;19.30;74.21
61113;BME280;47184;57.998;56.184;2023-07-20T07:02:05;98202.63;;;20.01;75.98
61113;BME280;47184;57.998;56.184;2023-07-20T07:04:31;98140.03;;;21.08;76.33
61113;BME280;47184;57.998;56.184;2023-07-20T07:06:57;98160.34;;;23.05;72.24
61113;BME280;47184;57.998;56.184;2023-07-20T07:09:23;98203.66;;;23.09;71.28
61113;BME280;47184;57.998;56.184;2023-07-20T07:11:50;98172.19;;;22.80;71.92
61113;BME280;47184;57.998;56.184;2023-07-20T07:14:20;98195.38;;;22.13;73.32
61113;BME280;47184;57.998;56.184;2023-07-20T07:16:47;98155.28;;;21.17;75.38
61113;BME280;47184;57.998;56.184;2023-07-20T07:19:13;98193.41;;;21.14;76.54
61113;BME280;47184;57.998;56.184;2023-07-20T07:21:39;98136.06;;;20.90;77.76
61113;BME280;47184;57.998;56.184;2023-07-20T07:24:05;98180.69;;;22.34;77.54
61113;BME280;47184;57.998;56.184;2023-07-20T07:26:33;98186.47;;;23.90;75.07
61113;BME280;47184;57.998;56.184;2023-07-20T07:28:59;98204.06;;;24.86;72.64
61113;BME280;47184;57.998;56.184;2023-07-20T07:31:25;98185.38;;;26.53;68.71
61113;BME280;47184;57.998;56.184;2023-07-20T07:33:51;98135.53;;;27.51;64.09
61113;BME280;47184;57.998;56.184;2023-07-20T07:36:17;98173.19;;;28.48;61.99
61113;BME280;47184;57.998;56.184;2023-07-20T07:38:45;98147.09;;;28.64;57.32
61113;BME280;47184;57.998;56.184;2023-07-20T07:41:12;98187.59;;;28.14;56.14
61113;BME280;47184;57.998;56.184;2023-07-20T07:43:38;98181.81;;;26.22;56.91
61113;BME280;47184;57.998;56.184;2023-07-20T07:46:04;98193.72;;;25.07;58.31
61113;BME280;47184;57.998;56.184;2023-07-20T07:48:30;98188.13;;;24.57;59.96
61113;BME280;47184;57.998;56.184;2023-07-20T07:50:56;98166.16;;;23.98;60.86
61113;BME280;47184;57.998;56.184;2023-07-20T07:53:23;98186.22;;;24.25;60.19
61113;BME280;47184;57.998;56.184;2023-07-20T07:55:52;98210.44;;;24.11;58.84
61113;BME280;47184;57.998;56.184;2023-07-20T07:58:21;98199.94;;;23.71;58.71
61113;BME280;47184;57.998;56.184;2023-07-20T08:00:47;98177.81;;;23.75;58.37
61113;BME280;47184;57.998;56.184;2023-07-20T08:03:13;98181.44;;;23.84;58.30
61113;BME280;47184;57.998;56.184;2023-07-20T08:05:39;98202.34;;;24.30;57.53
61113;BME280;47184;57.998;56.184;2023-07-20T08:08:05;98201.00;;;24.27;56.26
61113;BME280;47184;57.998;56.184;2023-07-20T08:10:32;98213.72;;;24.45;55.94
61113;BME280;47184;57.998;56.184;2023-07-20T08:12:57;98175.31;;;24.95;54.54
61113;BME280;47184;57.998;56.184;2023-07-20T08:15:23;98199.22;;;26.52;51.75
61113;BME280;47184;57.998;56.184;2023-07-20T08:17:49;98187.81;;;27.34;49.23
61113;BME280;47184;57.998;56.184;2023-07-20T08:20:18;98212.66;;;28.54;47.14
61113;BME280;47184;57.998;56.184;2023-07-20T08:22:44;98187.91;;;28.12;44.61
61113;BME280;47184;57.998;56.184;2023-07-20T08:25:10;98214.72;;;27.31;45.98
61113;BME280;47184;57.998;56.184;2023-07-20T08:27:36;98198.34;;;25.98;46.89
61113;BME280;47184;57.998;56.184;2023-07-20T08:30:03;98180.31;;;25.29;47.34
61113;BME280;47184;57.998;56.184;2023-07-20T08:32:32;98195.53;;;25.11;47.66
61113;BME280;47184;57.998;56.184;2023-07-20T08:34:58;98217.25;;;25.48;47.33
61113;BME280;47184;57.998;56.184;2023-07-20T08:37:24;98211.78;;;25.75;46.00
61113;BME280;47184;57.998;56.184;2023-07-20T08:39:51;98237.25;;;26.78;44.90
61113;BME280;47184;57.998;56.184;2023-07-20T08:42:17;98256.25;;;27.40;42.62
61113;BME280;47184;57.998;56.184;2023-07-20T08:44:44;98242.34;;;26.71;42.49
61113;BME280;47184;57.998;56.184;2023-07-20T08:47:12;98259.47;;;26.21;43.80
61113;BME280;47184;57.998;56.184;2023-07-20T08:49:39;98236.63;;;25.63;44.63
61113;BME280;47184;57.998;56.184;2023-07-20T08:52:07;98252.25;;;25.25;45.85
61113;BME280;47184;57.998;56.184;2023-07-20T08:54:33;98272.56;;;24.76;46.93
61113;BME280;47184;57.998;56.184;2023-07-20T08:57:04;98229.00;;;23.75;48.09
61113;BME280;47184;57.998;56.184;2023-07-20T08:59:31;98273.81;;;23.70;48.83
61113;BME280;47184;57.998;56.184;2023-07-20T09:02:02;98270.34;;;23.65;49.28
61113;BME280;47184;57.998;56.184;2023-07-20T09:04:30;98282.25;;;23.40;50.24
61113;BME280;47184;57.998;56.184;2023-07-20T09:06:57;98282.25;;;23.40;50.53
61113;BME280;47184;57.998;56.184;2023-07-20T09:09:23;98274.00;;;23.31;50.03
61113;BME280;47184;57.998;56.184;2023-07-20T09:11:49;98278.50;;;23.36;50.02
61113;BME280;47184;57.998;56.184;2023-07-20T09:14:16;98291.28;;;23.25;50.41
61113;BME280;47184;57.998;56.184;2023-07-20T09:19:16;98253.03;;;22.99;50.14
61113;BME280;47184;57.998;56.184;2023-07-20T09:21:48;98279.66;;;23.54;49.44
61113;BME280;47184;57.998;56.184;2023-07-20T09:24:16;98276.31;;;23.62;48.74
61113;BME280;47184;57.998;56.184;2023-07-20T09:26:44;98276.81;;;23.69;48.68
61113;BME280;47184;57.998;56.184;2023-07-20T09:29:11;98268.47;;;23.41;49.14
61113;BME280;47184;57.998;56.184;2023-07-20T09:31:37;98286.09;;;23.05;49.98
61113;BME280;47184;57.998;56.184;2023-07-20T09:34:06;98260.25;;;22.74;50.76
61113;BME280;47184;57.998;56.184;2023-07-20T09:36:34;98264.38;;;22.96;50.56
61113;BME280;47184;57.998;56.184;2023-07-20T09:39:02;98294.84;;;22.91;50.81
61113;BME280;47184;57.998;56.184;2023-07-20T09:41:28;98289.06;;;22.35;51.26
61113;BME280;47184;57.998;56.184;2023-07-20T09:43:54;98286.47;;;22.19;51.67
61113;BME280;47184;57.998;56.184;2023-07-20T09:46:20;98268.78;;;22.13;51.54
61113;BME280;47184;57.998;56.184;2023-07-20T09:49:01;98289.84;;;22.35;51.85
61113;BME280;47184;57.998;56.184;2023-07-20T09:51:28;98302.91;;;22.13;52.59
61113;BME280;47184;57.998;56.184;2023-07-20T09:53:54;98295.06;;;22.21;52.10
61113;BME280;47184;57.998;56.184;2023-07-20T09:56:21;98274.41;;;22.17;52.12
61113;BME280;47184;57.998;56.184;2023-07-20T09:58:51;98295.28;;;22.30;51.79
61113;BME280;47184;57.998;56.184;2023-07-20T10:01:20;98295.38;;;22.15;51.75
61113;BME280;47184;57.998;56.184;2023-07-20T10:03:51;98289.63;;;22.32;51.14
61113;BME280;47184;57.998;56.184;2023-07-20T10:06:24;98257.91;;;22.29;50.98
61113;BME280;47184;57.998;56.184;2023-07-20T10:08:53;98278.50;;;22.78;50.71
61113;BME280;47184;57.998;56.184;2023-07-20T10:11:22;98282.28;;;23.11;49.67
61113;BME280;47184;57.998;56.184;2023-07-20T10:13:58;98286.13;;;23.53;49.19
61113;BME280;47184;57.998;56.184;2023-07-20T10:16:31;98284.41;;;24.23;48.08
61113;BME280;47184;57.998;56.184;2023-07-20T10:19:03;98288.75;;;25.09;45.90
61113;BME280;47184;57.998;56.184;2023-07-20T10:21:42;98290.09;;;25.66;43.89
61113;BME280;47184;57.998;56.184;2023-07-20T10:24:14;98285.91;;;26.60;42.85
61113;BME280;47184;57.998;56.184;2023-07-20T10:26:42;98294.03;;;26.60;41.57
61113;BME280;47184;57.998;56.184;2023-07-20T10:29:08;98253.16;;;26.48;41.73
61113;BME280;47184;57.998;56.184;2023-07-20T10:31:37;98307.06;;;26.81;41.82
61113;BME280;47184;57.998;56.184;2023-07-20T10:34:03;98253.03;;;27.95;39.75
61113;BME280;47184;57.998;56.184;2023-07-20T10:36:30;98290.47;;;27.05;39.75
61113;BME280;47184;57.998;56.184;2023-07-20T10:38:57;98288.19;;;26.31;40.61
61113;BME280;47184;57.998;56.184;2023-07-20T10:41:34;98299.75;;;26.23;41.77
61113;BME280;47184;57.998;56.184;2023-07-20T10:44:08;98307.53;;;27.05;40.62
61113;BME280;47184;57.998;56.184;2023-07-20T10:49:05;98302.50;;;29.13;37.70
61113;BME280;47184;57.998;56.184;2023-07-20T10:56:52;98319.34;;;29.83;35.11
61113;BME280;47184;57.998;56.184;2023-07-20T10:59:19;98316.75;;;30.17;34.84
61113;BME280;47184;57.998;56.184;2023-07-20T11:01:47;98319.09;;;31.02;33.75
61113;BME280;47184;57.998;56.184;2023-07-20T11:04:17;98320.50;;;31.20;32.89
61113;BME280;47184;57.998;56.184;2023-07-20T11:06:45;98279.75;;;31.36;32.24
61113;BME280;47184;57.998;56.184;2023-07-20T11:09:15;98323.44;;;31.97;31.95
61113;BME280;47184;57.998;56.184;2023-07-20T11:11:42;98332.72;;;31.72;32.33
61113;BME280;47184;57.998;56.184;2023-07-20T11:14:22;98322.78;;;30.64;34.05
61113;BME280;47184;57.998;56.184;2023-07-20T11:16:50;98314.50;;;29.12;35.83
61113;BME280;47184;57.998;56.184;2023-07-20T11:19:24;98337.13;;;27.95;38.44
61113;BME280;47184;57.998;56.184;2023-07-20T11:21:57;98325.72;;;27.27;39.02
61113;BME280;47184;57.998;56.184;2023-07-20T11:24:24;98337.34;;;26.60;40.76
61113;BME280;47184;57.998;56.184;2023-07-20T11:26:51;98331.19;;;26.32;41.33
61113;BME280;47184;57.998;56.184;2023-07-20T11:29:19;98337.03;;;26.12;42.28
61113;BME280;47184;57.998;56.184;2023-07-20T11:31:47;98285.69;;;25.98;42.08
61113;BME280;47184;57.998;56.184;2023-07-20T11:34:14;98331.25;;;25.91;42.92
61113;BME280;47184;57.998;56.184;2023-07-20T11:36:42;98336.38;;;25.65;43.42
61113;BME280;47184;57.998;56.184;2023-07-20T11:39:10;98350.31;;;25.12;44.92
61113;BME280;47184;57.998;56.184;2023-07-20T11:41:37;98349.44;;;24.22;47.32
61113;BME280;47184;57.998;56.184;2023-07-20T11:44:04;98325.75;;;23.52;48.06
61113;BME280;47184;57.998;56.184;2023-07-20T11:46:32;98361.28;;;23.54;48.65
61113;BME280;47184;57.998;56.184;2023-07-20T11:48:58;98357.22;;;22.98;50.22
61113;BME280;47184;57.998;56.184;2023-07-20T11:51:28;98370.91;;;22.63;51.20
61113;BME280;47184;57.998;56.184;2023-07-20T11:53:55;98366.69;;;22.52;51.85
61113;BME280;47184;57.998;56.184;2023-07-20T11:56:23;98335.84;;;22.78;50.52
61113;BME280;47184;57.998;56.184;2023-07-20T11:58:49;98347.88;;;22.86;50.33
61113;BME280;47184;57.998;56.184;2023-07-20T12:01:17;98366.16;;;22.89;50.68
61113;BME280;47184;57.998;56.184;2023-07-20T12:03:43;98368.56;;;22.95;50.85
61113;BME280;47184;57.998;56.184;2023-07-20T12:06:10;98368.84;;;22.89;51.67
61113;BME280;47184;57.998;56.184;2023-07-20T12:08:43;98314.88;;;22.36;51.83
61113;BME280;47184;57.998;56.184;2023-07-20T12:11:10;98356.16;;;22.55;51.55
61113;BME280;47184;57.998;56.184;2023-07-20T12:13:42;98317.25;;;22.77;50.65
61113;BME280;47184;57.998;56.184;2023-07-20T12:16:10;98363.47;;;23.52;49.86
61113;BME280;47184;57.998;56.184;2023-07-20T12:18:36;98357.47;;;23.84;49.04
61113;BME280;47184;57.998;56.184;2023-07-20T12:21:02;98364.81;;;24.03;48.45
61113;BME280;47184;57.998;56.184;2023-07-20T12:23:39;98368.13;;;23.94;48.25
61113;BME280;47184;57.998;56.184;2023-07-20T12:26:07;98386.69;;;23.48;48.91
61113;BME280;47184;57.998;56.184;2023-07-20T12:28:38;98372.59;;;22.93;49.99
61113;BME280;47184;57.998;56.184;2023-07-20T12:31:05;98403.78;;;22.55;51.73
61113;BME280;47184;57.998;56.184;2023-07-20T12:33:31;98397.75;;;22.23;52.84
61113;BME280;47184;57.998;56.184;2023-07-20T12:35:58;98390.41;;;21.64;54.03
61113;BME280;47184;57.998;56.184;2023-07-20T12:38:25;98377.81;;;21.34;54.97
61113;BME280;47184;57.998;56.184;2023-07-20T12:40:53;98388.53;;;20.73;57.25
61113;BME280;47184;57.998;56.184;2023-07-20T12:43:21;98369.69;;;19.69;59.97
61113;BME280;47184;57.998;56.184;2023-07-20T12:45:47;98408.81;;;19.38;61.56
61113;BME280;47184;57.998;56.184;2023-07-20T12:48:13;98405.56;;;19.31;62.30
61113;BME280;47184;57.998;56.184;2023-07-20T12:50:39;98405.81;;;19.35;63.37
61113;BME280;47184;57.998;56.184;2023-07-20T12:53:05;98393.50;;;19.71;62.89
61113;BME280;47184;57.998;56.184;2023-07-20T12:55:34;98404.56;;;20.47;61.61
61113;BME280;47184;57.998;56.184;2023-07-20T12:58:00;98393.94;;;21.03;59.84
61113;BME280;47184;57.998;56.184;2023-07-20T13:00:26;98404.91;;;21.73;57.95
61113;BME280;47184;57.998;56.184;2023-07-20T13:02:53;98390.03;;;22.01;57.20
61113;BME280;47184;57.998;56.184;2023-07-20T13:05:19;98389.97;;;22.22;56.00
61113;BME280;47184;57.998;56.184;2023-07-20T13:07:48;98387.25;;;22.27;55.46